You are not logged in, Click here to log in
ICAO: ZUUU Country: 中華人民共和國四川省成都市双流县 機場代碼: CTU
Latitude: 30.5675 Longitude: 103.949
Total Arrivals: 22 Total Departures: 20
Latest Arrival: CA1415 (ZBAA-ZUUU)CHU. CHUHAO Latest Departure: FS02 (ZUUU-ZGGG)CHU. CHUHAO
Scenery:
METAR : ZUUU 210700Z VRB01MPS 9999 FEW020 SCT033 29/23 Q1007 NOSIG

成都雙流國際機場